sensor_id;sensor_type;location;lat;lon;timestamp;P1;durP1;ratioP1;P2;durP2;ratioP2
15516;SDS011;7860;52.030;5.572;2022-11-20T00:02:53;26.87;;;17.87;;
15516;SDS011;7860;52.030;5.572;2022-11-20T00:02:53;26.84;;;18.31;;
15516;SDS011;7860;52.030;5.572;2022-11-20T00:02:54;25.42;;;16.67;;
15516;SDS011;7860;52.030;5.572;2022-11-20T00:03:05;25.82;;;17.65;;
15516;SDS011;7860;52.030;5.572;2022-11-20T00:04:05;26.43;;;17.39;;
15516;SDS011;7860;52.030;5.572;2022-11-20T00:05:07;28.53;;;18.50;;
15516;SDS011;7860;52.030;5.572;2022-11-20T00:06:09;27.36;;;18.04;;
15516;SDS011;7860;52.030;5.572;2022-11-20T00:07:08;25.95;;;17.22;;
15516;SDS011;7860;52.030;5.572;2022-11-20T00:08:09;26.56;;;17.19;;
15516;SDS011;7860;52.030;5.572;2022-11-20T00:09:10;27.90;;;18.35;;
15516;SDS011;7860;52.030;5.572;2022-11-20T00:10:11;24.98;;;16.65;;
15516;SDS011;7860;52.030;5.572;2022-11-20T00:11:12;25.80;;;17.37;;
15516;SDS011;7860;52.030;5.572;2022-11-20T00:12:13;25.53;;;17.20;;
15516;SDS011;7860;52.030;5.572;2022-11-20T00:13:13;27.00;;;17.42;;
15516;SDS011;7860;52.030;5.572;2022-11-20T00:14:14;26.13;;;17.05;;
15516;SDS011;7860;52.030;5.572;2022-11-20T00:15:15;28.41;;;18.10;;
15516;SDS011;7860;52.030;5.572;2022-11-20T00:16:17;27.32;;;17.84;;
15516;SDS011;7860;52.030;5.572;2022-11-20T00:17:17;28.65;;;18.87;;
15516;SDS011;7860;52.030;5.572;2022-11-20T00:18:18;28.94;;;19.70;;
15516;SDS011;7860;52.030;5.572;2022-11-20T00:19:19;29.99;;;19.28;;
15516;SDS011;7860;52.030;5.572;2022-11-20T00:20:20;28.70;;;18.69;;
15516;SDS011;7860;52.030;5.572;2022-11-20T00:21:22;25.34;;;16.82;;
15516;SDS011;7860;52.030;5.572;2022-11-20T00:22:21;26.78;;;17.48;;
15516;SDS011;7860;52.030;5.572;2022-11-20T00:23:22;26.56;;;17.64;;
15516;SDS011;7860;52.030;5.572;2022-11-20T00:24:23;26.94;;;17.92;;
15516;SDS011;7860;52.030;5.572;2022-11-20T00:25:24;26.76;;;17.64;;
15516;SDS011;7860;52.030;5.572;2022-11-20T00:26:25;25.21;;;17.38;;
15516;SDS011;7860;52.030;5.572;2022-11-20T00:27:26;24.95;;;16.79;;
15516;SDS011;7860;52.030;5.572;2022-11-20T00:28:27;23.62;;;16.09;;
15516;SDS011;7860;52.030;5.572;2022-11-20T00:29:28;24.77;;;16.82;;
15516;SDS011;7860;52.030;5.572;2022-11-20T00:30:28;25.12;;;17.75;;
15516;SDS011;7860;52.030;5.572;2022-11-20T00:31:30;23.44;;;16.65;;
15516;SDS011;7860;52.030;5.572;2022-11-20T00:32:30;24.57;;;16.54;;
15516;SDS011;7860;52.030;5.572;2022-11-20T00:33:31;24.90;;;16.89;;
15516;SDS011;7860;52.030;5.572;2022-11-20T00:34:32;24.92;;;16.96;;
15516;SDS011;7860;52.030;5.572;2022-11-20T00:35:33;23.08;;;15.74;;
15516;SDS011;7860;52.030;5.572;2022-11-20T00:36:34;23.54;;;16.39;;
15516;SDS011;7860;52.030;5.572;2022-11-20T00:37:35;25.17;;;16.36;;
15516;SDS011;7860;52.030;5.572;2022-11-20T00:38:36;24.08;;;16.62;;
15516;SDS011;7860;52.030;5.572;2022-11-20T00:39:36;24.31;;;16.16;;
15516;SDS011;7860;52.030;5.572;2022-11-20T00:40:37;24.94;;;16.51;;
15516;SDS011;7860;52.030;5.572;2022-11-20T00:41:38;25.08;;;16.59;;
15516;SDS011;7860;52.030;5.572;2022-11-20T00:42:39;22.86;;;15.65;;
15516;SDS011;7860;52.030;5.572;2022-11-20T00:43:40;22.52;;;15.90;;
15516;SDS011;7860;52.030;5.572;2022-11-20T00:44:41;24.69;;;16.96;;
15516;SDS011;7860;52.030;5.572;2022-11-20T00:45:42;25.07;;;16.45;;
15516;SDS011;7860;52.030;5.572;2022-11-20T00:46:43;25.55;;;17.12;;
15516;SDS011;7860;52.030;5.572;2022-11-20T00:47:43;26.24;;;17.01;;
15516;SDS011;7860;52.030;5.572;2022-11-20T00:48:44;25.50;;;16.83;;
15516;SDS011;7860;52.030;5.572;2022-11-20T00:49:45;24.76;;;16.54;;
15516;SDS011;7860;52.030;5.572;2022-11-20T00:50:46;24.04;;;16.20;;
15516;SDS011;7860;52.030;5.572;2022-11-20T00:51:47;25.94;;;17.20;;
15516;SDS011;7860;52.030;5.572;2022-11-20T00:52:48;26.23;;;17.09;;
15516;SDS011;7860;52.030;5.572;2022-11-20T00:53:49;25.05;;;17.95;;
15516;SDS011;7860;52.030;5.572;2022-11-20T00:54:50;26.17;;;17.42;;
15516;SDS011;7860;52.030;5.572;2022-11-20T00:55:52;24.65;;;17.05;;
15516;SDS011;7860;52.030;5.572;2022-11-20T00:56:52;27.12;;;18.23;;
15516;SDS011;7860;52.030;5.572;2022-11-20T00:57:52;25.14;;;17.35;;
15516;SDS011;7860;52.030;5.572;2022-11-20T00:58:53;26.03;;;17.85;;
15516;SDS011;7860;52.030;5.572;2022-11-20T00:59:54;28.93;;;17.97;;
15516;SDS011;7860;52.030;5.572;2022-11-20T01:00:59;26.02;;;17.65;;
15516;SDS011;7860;52.030;5.572;2022-11-20T01:01:56;26.64;;;18.17;;
15516;SDS011;7860;52.030;5.572;2022-11-20T01:02:57;28.60;;;18.93;;
15516;SDS011;7860;52.030;5.572;2022-11-20T01:03:58;24.95;;;17.29;;
15516;SDS011;7860;52.030;5.572;2022-11-20T01:04:58;29.31;;;19.70;;
15516;SDS011;7860;52.030;5.572;2022-11-20T01:06:00;29.12;;;18.87;;
15516;SDS011;7860;52.030;5.572;2022-11-20T01:07:00;28.74;;;19.24;;
15516;SDS011;7860;52.030;5.572;2022-11-20T01:08:01;35.23;;;23.46;;
15516;SDS011;7860;52.030;5.572;2022-11-20T01:09:03;32.05;;;21.06;;
15516;SDS011;7860;52.030;5.572;2022-11-20T01:10:03;42.29;;;28.06;;
15516;SDS011;7860;52.030;5.572;2022-11-20T01:11:04;35.05;;;22.10;;
15516;SDS011;7860;52.030;5.572;2022-11-20T01:12:05;35.19;;;22.92;;
15516;SDS011;7860;52.030;5.572;2022-11-20T01:13:05;46.70;;;30.64;;
15516;SDS011;7860;52.030;5.572;2022-11-20T01:14:08;40.37;;;25.89;;
15516;SDS011;7860;52.030;5.572;2022-11-20T01:15:08;40.94;;;26.22;;
15516;SDS011;7860;52.030;5.572;2022-11-20T01:16:09;37.76;;;24.85;;
15516;SDS011;7860;52.030;5.572;2022-11-20T01:17:09;34.66;;;23.27;;
15516;SDS011;7860;52.030;5.572;2022-11-20T01:18:10;32.72;;;22.58;;
15516;SDS011;7860;52.030;5.572;2022-11-20T01:19:11;34.69;;;22.52;;
15516;SDS011;7860;52.030;5.572;2022-11-20T01:20:12;35.21;;;23.56;;
15516;SDS011;7860;52.030;5.572;2022-11-20T01:21:14;34.31;;;21.89;;
15516;SDS011;7860;52.030;5.572;2022-11-20T01:22:13;33.95;;;22.15;;
15516;SDS011;7860;52.030;5.572;2022-11-20T01:23:14;33.67;;;20.66;;
15516;SDS011;7860;52.030;5.572;2022-11-20T01:24:16;31.18;;;19.93;;
15516;SDS011;7860;52.030;5.572;2022-11-20T01:25:16;34.79;;;20.76;;
15516;SDS011;7860;52.030;5.572;2022-11-20T01:26:18;33.78;;;21.35;;
15516;SDS011;7860;52.030;5.572;2022-11-20T01:27:18;30.10;;;20.56;;
15516;SDS011;7860;52.030;5.572;2022-11-20T01:28:19;29.43;;;19.45;;
15516;SDS011;7860;52.030;5.572;2022-11-20T01:29:21;33.66;;;21.09;;
15516;SDS011;7860;52.030;5.572;2022-11-20T01:30:20;30.94;;;21.33;;
15516;SDS011;7860;52.030;5.572;2022-11-20T01:31:23;30.37;;;20.50;;
15516;SDS011;7860;52.030;5.572;2022-11-20T01:32:22;31.17;;;21.00;;
15516;SDS011;7860;52.030;5.572;2022-11-20T01:33:23;31.98;;;21.33;;
15516;SDS011;7860;52.030;5.572;2022-11-20T01:34:24;31.88;;;21.17;;
15516;SDS011;7860;52.030;5.572;2022-11-20T01:35:25;30.57;;;21.06;;
15516;SDS011;7860;52.030;5.572;2022-11-20T01:36:26;34.06;;;20.53;;
15516;SDS011;7860;52.030;5.572;2022-11-20T01:37:26;32.59;;;21.26;;
15516;SDS011;7860;52.030;5.572;2022-11-20T01:38:26;30.54;;;20.82;;
15516;SDS011;7860;52.030;5.572;2022-11-20T01:39:27;29.83;;;20.38;;
15516;SDS011;7860;52.030;5.572;2022-11-20T01:40:27;30.60;;;20.39;;
15516;SDS011;7860;52.030;5.572;2022-11-20T01:41:29;29.30;;;20.23;;
15516;SDS011;7860;52.030;5.572;2022-11-20T01:42:29;31.26;;;20.19;;
15516;SDS011;7860;52.030;5.572;2022-11-20T01:43:30;29.29;;;20.05;;
15516;SDS011;7860;52.030;5.572;2022-11-20T01:44:48;30.77;;;20.84;;
15516;SDS011;7860;52.030;5.572;2022-11-20T01:46:32;31.16;;;21.04;;
15516;SDS011;7860;52.030;5.572;2022-11-20T01:47:34;29.99;;;20.76;;
15516;SDS011;7860;52.030;5.572;2022-11-20T01:48:36;30.70;;;20.52;;
15516;SDS011;7860;52.030;5.572;2022-11-20T01:49:36;31.39;;;20.10;;
15516;SDS011;7860;52.030;5.572;2022-11-20T01:50:36;26.61;;;17.59;;
15516;SDS011;7860;52.030;5.572;2022-11-20T01:51:38;30.06;;;18.26;;
15516;SDS011;7860;52.030;5.572;2022-11-20T01:52:39;29.67;;;18.44;;
15516;SDS011;7860;52.030;5.572;2022-11-20T01:53:39;29.77;;;18.59;;
15516;SDS011;7860;52.030;5.572;2022-11-20T01:54:41;29.66;;;19.04;;
15516;SDS011;7860;52.030;5.572;2022-11-20T01:55:41;30.49;;;19.14;;
15516;SDS011;7860;52.030;5.572;2022-11-20T01:56:41;27.96;;;18.37;;
15516;SDS011;7860;52.030;5.572;2022-11-20T01:57:41;29.02;;;19.32;;
15516;SDS011;7860;52.030;5.572;2022-11-20T01:58:44;28.83;;;19.38;;
15516;SDS011;7860;52.030;5.572;2022-11-20T01:59:44;30.94;;;20.33;;
15516;SDS011;7860;52.030;5.572;2022-11-20T02:00:44;31.82;;;21.25;;
15516;SDS011;7860;52.030;5.572;2022-11-20T02:01:45;31.73;;;20.84;;
15516;SDS011;7860;52.030;5.572;2022-11-20T02:02:45;30.31;;;20.16;;
15516;SDS011;7860;52.030;5.572;2022-11-20T02:03:45;31.50;;;21.23;;
15516;SDS011;7860;52.030;5.572;2022-11-20T02:04:46;30.21;;;20.38;;
15516;SDS011;7860;52.030;5.572;2022-11-20T02:05:49;30.04;;;19.64;;
15516;SDS011;7860;52.030;5.572;2022-11-20T02:06:49;28.43;;;18.61;;
15516;SDS011;7860;52.030;5.572;2022-11-20T02:07:49;30.56;;;19.93;;
15516;SDS011;7860;52.030;5.572;2022-11-20T02:08:50;27.51;;;18.96;;
15516;SDS011;7860;52.030;5.572;2022-11-20T02:09:51;26.52;;;17.74;;
15516;SDS011;7860;52.030;5.572;2022-11-20T02:10:52;31.36;;;20.02;;
15516;SDS011;7860;52.030;5.572;2022-11-20T02:11:52;29.63;;;19.06;;
15516;SDS011;7860;52.030;5.572;2022-11-20T02:12:53;28.84;;;19.55;;
15516;SDS011;7860;52.030;5.572;2022-11-20T02:13:54;27.97;;;18.04;;
15516;SDS011;7860;52.030;5.572;2022-11-20T02:14:56;31.25;;;18.01;;
15516;SDS011;7860;52.030;5.572;2022-11-20T02:15:56;28.31;;;18.36;;
15516;SDS011;7860;52.030;5.572;2022-11-20T02:16:57;25.58;;;17.44;;
15516;SDS011;7860;52.030;5.572;2022-11-20T02:17:58;30.31;;;18.89;;
15516;SDS011;7860;52.030;5.572;2022-11-20T02:18:59;29.74;;;18.02;;
15516;SDS011;7860;52.030;5.572;2022-11-20T02:19:59;29.47;;;18.64;;
15516;SDS011;7860;52.030;5.572;2022-11-20T02:21:01;28.10;;;19.83;;
15516;SDS011;7860;52.030;5.572;2022-11-20T02:22:02;29.98;;;19.77;;
15516;SDS011;7860;52.030;5.572;2022-11-20T02:23:03;29.30;;;19.84;;
15516;SDS011;7860;52.030;5.572;2022-11-20T02:24:04;30.37;;;20.66;;
15516;SDS011;7860;52.030;5.572;2022-11-20T02:25:04;31.99;;;20.97;;
15516;SDS011;7860;52.030;5.572;2022-11-20T02:26:06;31.48;;;20.37;;
15516;SDS011;7860;52.030;5.572;2022-11-20T02:27:06;28.81;;;19.55;;
15516;SDS011;7860;52.030;5.572;2022-11-20T02:28:06;29.08;;;19.46;;
15516;SDS011;7860;52.030;5.572;2022-11-20T02:29:07;28.54;;;18.43;;
15516;SDS011;7860;52.030;5.572;2022-11-20T02:30:09;28.68;;;18.73;;
15516;SDS011;7860;52.030;5.572;2022-11-20T02:31:09;27.01;;;17.43;;
15516;SDS011;7860;52.030;5.572;2022-11-20T02:32:17;29.93;;;19.42;;
15516;SDS011;7860;52.030;5.572;2022-11-20T02:33:11;27.19;;;17.98;;
15516;SDS011;7860;52.030;5.572;2022-11-20T02:34:12;26.78;;;18.43;;
15516;SDS011;7860;52.030;5.572;2022-11-20T02:35:38;29.29;;;19.08;;
15516;SDS011;7860;52.030;5.572;2022-11-20T02:36:14;29.45;;;18.50;;
15516;SDS011;7860;52.030;5.572;2022-11-20T02:37:14;30.57;;;18.63;;
15516;SDS011;7860;52.030;5.572;2022-11-20T02:38:15;28.28;;;18.68;;
15516;SDS011;7860;52.030;5.572;2022-11-20T02:39:16;27.30;;;18.61;;
15516;SDS011;7860;52.030;5.572;2022-11-20T02:40:17;29.39;;;19.24;;
15516;SDS011;7860;52.030;5.572;2022-11-20T02:41:18;29.64;;;19.04;;
15516;SDS011;7860;52.030;5.572;2022-11-20T02:42:18;29.33;;;19.34;;
15516;SDS011;7860;52.030;5.572;2022-11-20T02:43:19;29.14;;;19.86;;
15516;SDS011;7860;52.030;5.572;2022-11-20T02:44:19;27.96;;;17.67;;
15516;SDS011;7860;52.030;5.572;2022-11-20T02:45:20;28.21;;;17.69;;
15516;SDS011;7860;52.030;5.572;2022-11-20T02:46:21;26.35;;;17.39;;
15516;SDS011;7860;52.030;5.572;2022-11-20T02:47:21;27.82;;;18.03;;
15516;SDS011;7860;52.030;5.572;2022-11-20T02:48:22;28.17;;;18.20;;
15516;SDS011;7860;52.030;5.572;2022-11-20T02:49:23;28.46;;;19.12;;
15516;SDS011;7860;52.030;5.572;2022-11-20T02:50:24;29.61;;;19.65;;
15516;SDS011;7860;52.030;5.572;2022-11-20T02:51:25;29.24;;;19.73;;
15516;SDS011;7860;52.030;5.572;2022-11-20T02:52:25;30.01;;;19.18;;
15516;SDS011;7860;52.030;5.572;2022-11-20T02:53:26;29.29;;;20.10;;
15516;SDS011;7860;52.030;5.572;2022-11-20T02:54:27;29.83;;;20.19;;
15516;SDS011;7860;52.030;5.572;2022-11-20T02:55:28;29.30;;;19.98;;
15516;SDS011;7860;52.030;5.572;2022-11-20T02:56:29;27.86;;;18.44;;
15516;SDS011;7860;52.030;5.572;2022-11-20T02:57:30;27.31;;;19.14;;
15516;SDS011;7860;52.030;5.572;2022-11-20T02:58:31;27.77;;;19.36;;
15516;SDS011;7860;52.030;5.572;2022-11-20T02:59:32;28.24;;;19.10;;
15516;SDS011;7860;52.030;5.572;2022-11-20T03:00:32;28.66;;;19.28;;
15516;SDS011;7860;52.030;5.572;2022-11-20T03:01:33;26.92;;;18.68;;
15516;SDS011;7860;52.030;5.572;2022-11-20T03:02:34;28.12;;;18.93;;
15516;SDS011;7860;52.030;5.572;2022-11-20T03:03:35;30.26;;;19.53;;
15516;SDS011;7860;52.030;5.572;2022-11-20T03:04:36;30.70;;;19.60;;
15516;SDS011;7860;52.030;5.572;2022-11-20T03:05:37;27.08;;;18.90;;
15516;SDS011;7860;52.030;5.572;2022-11-20T03:06:38;29.17;;;20.03;;
15516;SDS011;7860;52.030;5.572;2022-11-20T03:07:39;27.18;;;17.95;;
15516;SDS011;7860;52.030;5.572;2022-11-20T03:08:40;29.36;;;19.46;;
15516;SDS011;7860;52.030;5.572;2022-11-20T03:09:40;27.13;;;18.25;;
15516;SDS011;7860;52.030;5.572;2022-11-20T03:10:41;26.23;;;18.24;;
15516;SDS011;7860;52.030;5.572;2022-11-20T03:11:42;25.95;;;18.40;;
15516;SDS011;7860;52.030;5.572;2022-11-20T03:12:43;27.77;;;19.26;;
15516;SDS011;7860;52.030;5.572;2022-11-20T03:13:44;29.09;;;18.95;;
15516;SDS011;7860;52.030;5.572;2022-11-20T03:14:45;25.02;;;17.78;;
15516;SDS011;7860;52.030;5.572;2022-11-20T03:15:46;29.17;;;18.69;;
15516;SDS011;7860;52.030;5.572;2022-11-20T03:16:47;27.50;;;18.11;;
15516;SDS011;7860;52.030;5.572;2022-11-20T03:17:47;27.54;;;17.03;;
15516;SDS011;7860;52.030;5.572;2022-11-20T03:18:49;28.86;;;16.50;;
15516;SDS011;7860;52.030;5.572;2022-11-20T03:19:49;25.31;;;16.66;;
15516;SDS011;7860;52.030;5.572;2022-11-20T03:20:56;28.24;;;18.34;;
15516;SDS011;7860;52.030;5.572;2022-11-20T03:21:51;28.27;;;17.89;;
15516;SDS011;7860;52.030;5.572;2022-11-20T03:22:53;30.08;;;17.64;;
15516;SDS011;7860;52.030;5.572;2022-11-20T03:23:53;27.20;;;17.90;;
15516;SDS011;7860;52.030;5.572;2022-11-20T03:24:54;26.69;;;18.23;;
15516;SDS011;7860;52.030;5.572;2022-11-20T03:25:55;25.70;;;17.42;;
15516;SDS011;7860;52.030;5.572;2022-11-20T03:26:55;26.33;;;17.96;;
15516;SDS011;7860;52.030;5.572;2022-11-20T03:27:56;26.46;;;17.79;;
15516;SDS011;7860;52.030;5.572;2022-11-20T03:28:58;25.50;;;18.13;;
15516;SDS011;7860;52.030;5.572;2022-11-20T03:29:58;26.75;;;17.96;;
15516;SDS011;7860;52.030;5.572;2022-11-20T03:31:04;25.62;;;17.79;;
15516;SDS011;7860;52.030;5.572;2022-11-20T03:32:00;27.47;;;17.63;;
15516;SDS011;7860;52.030;5.572;2022-11-20T03:33:01;25.18;;;17.02;;
15516;SDS011;7860;52.030;5.572;2022-11-20T03:34:03;24.72;;;17.08;;
15516;SDS011;7860;52.030;5.572;2022-11-20T03:35:03;24.79;;;16.95;;
15516;SDS011;7860;52.030;5.572;2022-11-20T03:36:04;28.78;;;18.61;;
15516;SDS011;7860;52.030;5.572;2022-11-20T03:37:03;26.47;;;17.34;;
15516;SDS011;7860;52.030;5.572;2022-11-20T03:38:04;25.12;;;17.76;;
15516;SDS011;7860;52.030;5.572;2022-11-20T03:39:05;26.49;;;17.72;;
15516;SDS011;7860;52.030;5.572;2022-11-20T03:40:06;25.41;;;17.22;;
15516;SDS011;7860;52.030;5.572;2022-11-20T03:41:08;27.60;;;17.72;;
15516;SDS011;7860;52.030;5.572;2022-11-20T03:42:08;25.40;;;15.95;;
15516;SDS011;7860;52.030;5.572;2022-11-20T03:43:09;25.42;;;15.51;;
15516;SDS011;7860;52.030;5.572;2022-11-20T03:44:10;26.00;;;16.40;;
15516;SDS011;7860;52.030;5.572;2022-11-20T03:45:10;26.50;;;16.84;;
15516;SDS011;7860;52.030;5.572;2022-11-20T03:46:11;27.96;;;18.32;;
15516;SDS011;7860;52.030;5.572;2022-11-20T03:47:12;25.57;;;17.37;;
15516;SDS011;7860;52.030;5.572;2022-11-20T03:48:13;24.87;;;16.36;;
15516;SDS011;7860;52.030;5.572;2022-11-20T03:49:14;26.17;;;18.02;;
15516;SDS011;7860;52.030;5.572;2022-11-20T03:50:15;27.29;;;18.59;;
15516;SDS011;7860;52.030;5.572;2022-11-20T03:51:16;29.66;;;18.59;;
15516;SDS011;7860;52.030;5.572;2022-11-20T03:52:16;26.25;;;17.66;;
15516;SDS011;7860;52.030;5.572;2022-11-20T03:53:17;26.28;;;17.09;;
15516;SDS011;7860;52.030;5.572;2022-11-20T03:54:18;26.46;;;17.63;;
15516;SDS011;7860;52.030;5.572;2022-11-20T03:55:19;26.36;;;17.81;;
15516;SDS011;7860;52.030;5.572;2022-11-20T03:56:22;26.82;;;17.34;;
15516;SDS011;7860;52.030;5.572;2022-11-20T03:57:21;27.27;;;16.98;;
15516;SDS011;7860;52.030;5.572;2022-11-20T03:58:22;26.75;;;17.35;;
15516;SDS011;7860;52.030;5.572;2022-11-20T03:59:23;27.19;;;17.51;;
15516;SDS011;7860;52.030;5.572;2022-11-20T04:00:24;27.16;;;16.08;;
15516;SDS011;7860;52.030;5.572;2022-11-20T04:01:25;26.55;;;15.92;;
15516;SDS011;7860;52.030;5.572;2022-11-20T04:02:25;26.03;;;17.43;;
15516;SDS011;7860;52.030;5.572;2022-11-20T04:03:26;27.34;;;16.68;;
15516;SDS011;7860;52.030;5.572;2022-11-20T04:04:27;26.42;;;17.58;;
15516;SDS011;7860;52.030;5.572;2022-11-20T04:05:28;25.87;;;17.93;;
15516;SDS011;7860;52.030;5.572;2022-11-20T04:06:30;25.06;;;17.58;;
15516;SDS011;7860;52.030;5.572;2022-11-20T04:07:30;26.68;;;17.70;;
15516;SDS011;7860;52.030;5.572;2022-11-20T04:08:31;26.52;;;17.96;;
15516;SDS011;7860;52.030;5.572;2022-11-20T04:09:32;25.65;;;17.09;;
15516;SDS011;7860;52.030;5.572;2022-11-20T04:10:33;23.87;;;15.77;;
15516;SDS011;7860;52.030;5.572;2022-11-20T04:11:34;25.79;;;17.04;;
15516;SDS011;7860;52.030;5.572;2022-11-20T04:12:34;27.69;;;17.76;;
15516;SDS011;7860;52.030;5.572;2022-11-20T04:13:35;26.13;;;17.74;;
15516;SDS011;7860;52.030;5.572;2022-11-20T04:14:36;25.26;;;17.21;;
15516;SDS011;7860;52.030;5.572;2022-11-20T04:15:37;26.21;;;18.03;;
15516;SDS011;7860;52.030;5.572;2022-11-20T04:16:38;26.13;;;17.74;;
15516;SDS011;7860;52.030;5.572;2022-11-20T04:17:39;26.60;;;17.05;;
15516;SDS011;7860;52.030;5.572;2022-11-20T04:18:40;28.40;;;17.45;;
15516;SDS011;7860;52.030;5.572;2022-11-20T04:19:41;25.98;;;17.54;;
15516;SDS011;7860;52.030;5.572;2022-11-20T04:20:41;24.38;;;16.48;;
15516;SDS011;7860;52.030;5.572;2022-11-20T04:21:43;25.85;;;17.15;;
15516;SDS011;7860;52.030;5.572;2022-11-20T04:22:43;25.89;;;17.38;;
15516;SDS011;7860;52.030;5.572;2022-11-20T04:23:44;24.73;;;17.00;;
15516;SDS011;7860;52.030;5.572;2022-11-20T04:24:45;25.83;;;17.28;;
15516;SDS011;7860;52.030;5.572;2022-11-20T04:25:46;24.40;;;16.05;;
15516;SDS011;7860;52.030;5.572;2022-11-20T04:26:47;26.13;;;16.98;;
15516;SDS011;7860;52.030;5.572;2022-11-20T04:27:48;24.88;;;16.03;;
15516;SDS011;7860;52.030;5.572;2022-11-20T04:28:49;26.63;;;16.85;;
15516;SDS011;7860;52.030;5.572;2022-11-20T04:29:49;27.37;;;17.49;;
15516;SDS011;7860;52.030;5.572;2022-11-20T04:30:50;25.16;;;17.16;;
15516;SDS011;7860;52.030;5.572;2022-11-20T04:31:51;26.84;;;16.55;;
15516;SDS011;7860;52.030;5.572;2022-11-20T04:32:52;25.52;;;15.94;;
15516;SDS011;7860;52.030;5.572;2022-11-20T04:33:53;25.29;;;15.93;;
15516;SDS011;7860;52.030;5.572;2022-11-20T04:34:54;26.15;;;16.69;;
15516;SDS011;7860;52.030;5.572;2022-11-20T04:35:55;25.86;;;17.03;;
15516;SDS011;7860;52.030;5.572;2022-11-20T04:36:56;27.28;;;17.50;;
15516;SDS011;7860;52.030;5.572;2022-11-20T04:37:56;25.90;;;16.53;;
15516;SDS011;7860;52.030;5.572;2022-11-20T04:38:58;25.94;;;16.32;;
15516;SDS011;7860;52.030;5.572;2022-11-20T04:39:58;27.15;;;16.86;;
15516;SDS011;7860;52.030;5.572;2022-11-20T04:41:00;25.16;;;16.55;;
15516;SDS011;7860;52.030;5.572;2022-11-20T04:42:00;25.61;;;16.92;;
15516;SDS011;7860;52.030;5.572;2022-11-20T04:43:01;25.69;;;16.84;;
15516;SDS011;7860;52.030;5.572;2022-11-20T04:44:02;23.68;;;16.27;;
15516;SDS011;7860;52.030;5.572;2022-11-20T04:45:03;25.23;;;16.04;;
15516;SDS011;7860;52.030;5.572;2022-11-20T04:46:04;25.18;;;16.66;;
15516;SDS011;7860;52.030;5.572;2022-11-20T04:47:04;25.30;;;16.72;;
15516;SDS011;7860;52.030;5.572;2022-11-20T04:48:04;25.09;;;16.67;;
15516;SDS011;7860;52.030;5.572;2022-11-20T04:49:05;23.60;;;15.78;;
15516;SDS011;7860;52.030;5.572;2022-11-20T04:50:06;26.36;;;16.55;;
15516;SDS011;7860;52.030;5.572;2022-11-20T04:51:07;25.68;;;16.21;;
15516;SDS011;7860;52.030;5.572;2022-11-20T04:52:08;23.55;;;16.60;;
15516;SDS011;7860;52.030;5.572;2022-11-20T04:53:09;23.68;;;16.04;;
15516;SDS011;7860;52.030;5.572;2022-11-20T04:54:10;25.92;;;16.97;;
15516;SDS011;7860;52.030;5.572;2022-11-20T04:55:11;25.92;;;17.38;;
15516;SDS011;7860;52.030;5.572;2022-11-20T04:56:12;26.63;;;17.02;;
15516;SDS011;7860;52.030;5.572;2022-11-20T04:57:13;23.89;;;16.27;;
15516;SDS011;7860;52.030;5.572;2022-11-20T04:58:13;25.89;;;17.27;;
15516;SDS011;7860;52.030;5.572;2022-11-20T04:59:14;26.17;;;16.22;;
15516;SDS011;7860;52.030;5.572;2022-11-20T05:00:15;25.33;;;17.09;;
15516;SDS011;7860;52.030;5.572;2022-11-20T05:01:17;24.37;;;16.54;;
15516;SDS011;7860;52.030;5.572;2022-11-20T05:02:17;26.43;;;16.59;;
15516;SDS011;7860;52.030;5.572;2022-11-20T05:03:18;25.59;;;17.21;;
15516;SDS011;7860;52.030;5.572;2022-11-20T05:04:19;26.38;;;17.43;;
15516;SDS011;7860;52.030;5.572;2022-11-20T05:05:19;25.61;;;17.62;;
15516;SDS011;7860;52.030;5.572;2022-11-20T05:06:21;24.06;;;16.56;;
15516;SDS011;7860;52.030;5.572;2022-11-20T05:07:21;23.44;;;14.42;;
15516;SDS011;7860;52.030;5.572;2022-11-20T05:08:22;25.92;;;16.16;;
15516;SDS011;7860;52.030;5.572;2022-11-20T05:09:23;22.62;;;14.57;;
15516;SDS011;7860;52.030;5.572;2022-11-20T05:10:24;24.83;;;16.18;;
15516;SDS011;7860;52.030;5.572;2022-11-20T05:11:25;25.71;;;17.20;;
15516;SDS011;7860;52.030;5.572;2022-11-20T05:12:26;25.27;;;16.64;;
15516;SDS011;7860;52.030;5.572;2022-11-20T05:13:26;24.86;;;16.86;;
15516;SDS011;7860;52.030;5.572;2022-11-20T05:14:27;23.61;;;16.21;;
15516;SDS011;7860;52.030;5.572;2022-11-20T05:15:28;24.29;;;16.74;;
15516;SDS011;7860;52.030;5.572;2022-11-20T05:16:29;23.98;;;16.07;;
15516;SDS011;7860;52.030;5.572;2022-11-20T05:17:30;26.39;;;17.00;;
15516;SDS011;7860;52.030;5.572;2022-11-20T05:18:31;24.66;;;16.29;;
15516;SDS011;7860;52.030;5.572;2022-11-20T05:19:32;26.21;;;17.74;;
15516;SDS011;7860;52.030;5.572;2022-11-20T05:20:33;28.83;;;18.07;;
15516;SDS011;7860;52.030;5.572;2022-11-20T05:21:33;26.49;;;17.74;;
15516;SDS011;7860;52.030;5.572;2022-11-20T05:22:34;27.84;;;18.10;;
15516;SDS011;7860;52.030;5.572;2022-11-20T05:23:36;28.40;;;17.80;;
15516;SDS011;7860;52.030;5.572;2022-11-20T05:24:36;27.24;;;17.73;;
15516;SDS011;7860;52.030;5.572;2022-11-20T05:25:37;26.91;;;17.65;;
15516;SDS011;7860;52.030;5.572;2022-11-20T05:26:38;26.38;;;16.88;;
15516;SDS011;7860;52.030;5.572;2022-11-20T05:27:39;28.93;;;17.84;;
15516;SDS011;7860;52.030;5.572;2022-11-20T05:28:40;26.26;;;17.44;;
15516;SDS011;7860;52.030;5.572;2022-11-20T05:29:41;28.14;;;17.41;;
15516;SDS011;7860;52.030;5.572;2022-11-20T05:30:41;25.37;;;17.07;;
15516;SDS011;7860;52.030;5.572;2022-11-20T05:31:42;25.56;;;17.05;;
15516;SDS011;7860;52.030;5.572;2022-11-20T05:32:43;26.35;;;16.44;;
15516;SDS011;7860;52.030;5.572;2022-11-20T05:33:44;24.87;;;16.33;;
15516;SDS011;7860;52.030;5.572;2022-11-20T05:34:45;26.17;;;16.70;;
15516;SDS011;7860;52.030;5.572;2022-11-20T05:35:46;25.07;;;16.26;;
15516;SDS011;7860;52.030;5.572;2022-11-20T05:36:46;26.14;;;17.26;;
15516;SDS011;7860;52.030;5.572;2022-11-20T05:37:47;26.85;;;16.80;;
15516;SDS011;7860;52.030;5.572;2022-11-20T05:38:47;24.57;;;16.39;;
15516;SDS011;7860;52.030;5.572;2022-11-20T05:39:47;27.00;;;17.53;;
15516;SDS011;7860;52.030;5.572;2022-11-20T05:40:48;24.97;;;16.13;;
15516;SDS011;7860;52.030;5.572;2022-11-20T05:41:49;29.77;;;17.40;;
15516;SDS011;7860;52.030;5.572;2022-11-20T05:42:50;26.39;;;16.47;;
15516;SDS011;7860;52.030;5.572;2022-11-20T05:43:51;26.97;;;17.06;;
15516;SDS011;7860;52.030;5.572;2022-11-20T05:44:52;27.57;;;17.75;;
15516;SDS011;7860;52.030;5.572;2022-11-20T05:45:53;26.26;;;17.67;;
15516;SDS011;7860;52.030;5.572;2022-11-20T05:46:54;27.01;;;18.04;;
15516;SDS011;7860;52.030;5.572;2022-11-20T05:47:57;27.43;;;17.42;;
15516;SDS011;7860;52.030;5.572;2022-11-20T05:48:56;28.32;;;17.63;;
15516;SDS011;7860;52.030;5.572;2022-11-20T05:49:56;26.34;;;17.15;;
15516;SDS011;7860;52.030;5.572;2022-11-20T05:50:57;28.17;;;18.07;;
15516;SDS011;7860;52.030;5.572;2022-11-20T05:51:58;27.99;;;16.78;;
15516;SDS011;7860;52.030;5.572;2022-11-20T05:52:59;28.47;;;17.60;;
15516;SDS011;7860;52.030;5.572;2022-11-20T05:54:00;25.10;;;16.72;;
15516;SDS011;7860;52.030;5.572;2022-11-20T05:55:01;27.81;;;18.11;;
15516;SDS011;7860;52.030;5.572;2022-11-20T05:56:03;27.77;;;17.93;;
15516;SDS011;7860;52.030;5.572;2022-11-20T05:57:03;28.08;;;17.84;;
15516;SDS011;7860;52.030;5.572;2022-11-20T05:58:03;25.72;;;17.88;;
15516;SDS011;7860;52.030;5.572;2022-11-20T05:59:04;27.79;;;17.90;;
15516;SDS011;7860;52.030;5.572;2022-11-20T06:00:06;26.06;;;17.93;;
15516;SDS011;7860;52.030;5.572;2022-11-20T06:01:07;27.55;;;17.18;;